createdAt,value
2022-10-03T00:01:29.482Z,11.42
2022-10-03T00:06:35.488Z,11.20
2022-10-03T00:11:42.107Z,11.48
2022-10-03T00:16:47.449Z,8.79
2022-10-03T00:21:53.676Z,11.81
2022-10-03T00:27:00.105Z,10.06
2022-10-03T00:32:06.284Z,12.40
2022-10-03T00:37:12.357Z,11.14
2022-10-03T00:42:18.714Z,8.77
2022-10-03T00:47:24.958Z,13.61
2022-10-03T00:52:31.477Z,15.58
2022-10-03T00:57:37.572Z,9.56
2022-10-03T01:02:43.751Z,14.47
2022-10-03T01:07:49.851Z,9.96
2022-10-03T01:12:56.011Z,10.33
2022-10-03T01:18:02.137Z,10.43
2022-10-03T01:23:08.341Z,8.67
2022-10-03T01:28:14.744Z,10.64
2022-10-03T01:33:20.932Z,9.33
2022-10-03T01:38:27.887Z,14.00
2022-10-03T01:43:34.211Z,9.81
2022-10-03T01:48:40.292Z,9.06
2022-10-03T01:53:46.473Z,6.98
2022-10-03T01:58:52.631Z,9.30
2022-10-03T02:03:58.857Z,9.82
2022-10-03T02:09:05.282Z,8.14
2022-10-03T02:14:11.446Z,12.28
2022-10-03T02:19:17.583Z,15.01
2022-10-03T02:24:23.885Z,11.91
2022-10-03T02:29:30.026Z,9.42
2022-10-03T02:34:36.182Z,11.01
2022-10-03T02:39:42.249Z,8.55
2022-10-03T02:44:48.518Z,14.98
2022-10-03T02:49:54.678Z,9.55
2022-10-03T02:55:00.899Z,10.45
2022-10-03T03:00:06.958Z,9.50
2022-10-03T03:05:13.147Z,10.89
2022-10-03T03:10:19.296Z,7.49
2022-10-03T03:15:25.541Z,8.10
2022-10-03T03:20:31.643Z,9.78
2022-10-03T03:25:37.821Z,9.45
2022-10-03T03:30:43.942Z,6.95
2022-10-03T03:35:50.146Z,8.91
2022-10-03T03:40:56.325Z,9.74
2022-10-03T03:46:02.859Z,7.92
2022-10-03T03:51:09.054Z,11.31
2022-10-03T03:56:15.351Z,8.51
2022-10-03T04:01:21.586Z,10.14
2022-10-03T04:06:27.746Z,9.21
2022-10-03T04:11:33.842Z,7.61
2022-10-03T04:16:40.179Z,6.97
2022-10-03T04:21:46.143Z,6.76
2022-10-03T04:26:52.372Z,9.47
2022-10-03T04:31:58.558Z,9.51
2022-10-03T04:37:05.235Z,8.77
2022-10-03T04:42:11.337Z,9.07
2022-10-03T04:47:17.580Z,9.49
2022-10-03T04:52:23.699Z,7.52
2022-10-03T04:57:29.995Z,7.16
2022-10-03T05:02:36.437Z,9.65
2022-10-03T05:07:42.912Z,9.38
2022-10-03T05:12:49.006Z,6.54
2022-10-03T05:17:55.571Z,6.38
2022-10-03T05:23:01.677Z,6.71
2022-10-03T05:28:08.218Z,12.57
2022-10-03T05:33:14.216Z,8.58
2022-10-03T05:38:20.474Z,9.90
2022-10-03T05:43:26.607Z,13.61
2022-10-03T05:48:32.871Z,8.69
2022-10-03T05:53:38.962Z,5.44
2022-10-03T05:58:46.022Z,9.60
2022-10-03T06:04:24.513Z,8.86
2022-10-03T06:09:31.092Z,9.07
2022-10-03T06:14:37.312Z,7.08
2022-10-03T06:19:43.456Z,9.74
2022-10-03T06:24:49.691Z,9.71
2022-10-03T06:29:55.884Z,11.07
2022-10-03T06:35:02.030Z,11.16
2022-10-03T06:40:10.054Z,9.43
2022-10-03T06:45:13.894Z,5.91
2022-10-03T06:50:20.122Z,11.23
2022-10-03T06:55:26.235Z,9.55
2022-10-03T07:00:32.905Z,10.39
2022-10-03T07:05:41.184Z,13.04
2022-10-03T07:10:45.001Z,9.89
2022-10-03T07:16:14.267Z,9.86
2022-10-03T07:20:57.940Z,10.23
2022-10-03T07:26:04.343Z,9.04
2022-10-03T07:31:10.796Z,12.68
2022-10-03T07:36:17.840Z,9.78
2022-10-03T07:41:24.144Z,9.11
2022-10-03T07:46:30.387Z,8.90
2022-10-03T07:51:36.818Z,9.54
2022-10-03T07:56:42.409Z,9.84
2022-10-03T08:01:48.770Z,11.80
2022-10-03T08:06:54.905Z,11.33
2022-10-03T08:12:01.120Z,14.43
2022-10-03T08:17:07.262Z,11.33
2022-10-03T08:22:13.462Z,7.63
2022-10-03T08:27:19.947Z,11.84
2022-10-03T08:32:26.498Z,8.36
2022-10-03T08:37:32.592Z,9.48
2022-10-03T08:42:38.952Z,10.23
2022-10-03T08:47:45.331Z,9.34
2022-10-03T08:52:51.536Z,8.65
2022-10-03T08:57:58.017Z,8.45
2022-10-03T09:03:31.866Z,8.10
2022-10-03T09:08:12.452Z,9.48
2022-10-03T09:13:18.980Z,12.19
2022-10-03T09:18:25.555Z,8.74
2022-10-03T09:23:32.431Z,8.94
2022-10-03T09:28:38.661Z,6.21
2022-10-03T09:33:44.826Z,8.81
2022-10-03T09:38:50.925Z,7.19
2022-10-03T09:43:57.312Z,6.74
2022-10-03T09:49:03.619Z,9.34
2022-10-03T09:54:09.920Z,7.18
2022-10-03T09:59:16.027Z,7.33
2022-10-03T10:04:43.487Z,5.97
2022-10-03T10:09:28.049Z,7.53
2022-10-03T10:14:34.609Z,5.07
2022-10-03T10:19:40.747Z,4.65
2022-10-03T10:24:46.971Z,8.10
2022-10-03T10:29:53.464Z,6.81
2022-10-03T10:34:59.712Z,4.50
2022-10-03T10:40:05.830Z,4.87
2022-10-03T10:45:12.042Z,5.59
2022-10-03T10:50:18.110Z,7.34
2022-10-03T10:55:24.428Z,6.58
2022-10-03T11:00:30.659Z,6.02
2022-10-03T11:05:37.114Z,7.31
2022-10-03T11:10:43.239Z,6.72
2022-10-03T11:15:49.590Z,6.13
2022-10-03T11:20:55.721Z,5.39
2022-10-03T11:26:02.012Z,4.90
2022-10-03T11:31:08.133Z,7.64
2022-10-03T11:36:14.415Z,7.79
2022-10-03T11:41:21.314Z,7.98
2022-10-03T11:46:27.568Z,8.01
2022-10-03T11:51:33.777Z,7.38
2022-10-03T11:56:40.553Z,7.17
2022-10-03T12:01:50.842Z,6.62
2022-10-03T12:06:55.164Z,7.19
2022-10-03T12:12:01.251Z,9.62
2022-10-03T12:17:07.469Z,6.12
2022-10-03T12:22:13.626Z,7.69
2022-10-03T12:27:20.425Z,13.29
2022-10-03T12:32:26.511Z,6.90
2022-10-03T12:37:33.032Z,5.36
2022-10-03T12:42:39.195Z,5.61
2022-10-03T12:47:55.338Z,6.67
2022-10-03T12:52:51.730Z,6.31
2022-10-03T12:57:58.270Z,6.89
2022-10-03T13:03:04.812Z,4.46
2022-10-03T13:08:11.079Z,5.89
2022-10-03T13:13:17.235Z,5.10
2022-10-03T13:18:23.429Z,6.01
2022-10-03T13:23:29.529Z,4.59
2022-10-03T13:28:35.865Z,5.48
2022-10-03T13:33:41.948Z,4.71
2022-10-03T13:38:48.595Z,6.04
2022-10-03T13:43:54.678Z,5.84
2022-10-03T13:49:02.223Z,4.79
2022-10-03T13:54:06.640Z,7.62
2022-10-03T13:59:12.894Z,5.59
2022-10-03T14:04:19.360Z,4.30
2022-10-03T14:09:25.620Z,4.07
2022-10-03T14:14:32.028Z,4.76
2022-10-03T14:19:41.426Z,5.55
2022-10-03T14:24:45.634Z,5.19
2022-10-03T14:29:51.879Z,6.13
2022-10-03T14:34:58.019Z,4.58
2022-10-03T14:40:04.181Z,5.16
2022-10-03T14:45:10.354Z,4.51
2022-10-03T14:50:16.926Z,4.48
2022-10-03T14:55:27.594Z,5.18
2022-10-03T15:00:29.179Z,6.69
2022-10-03T15:05:35.374Z,6.87
2022-10-03T15:10:41.828Z,5.05
2022-10-03T15:15:48.116Z,6.11
2022-10-03T15:20:58.342Z,5.80
2022-10-03T15:25:54.400Z,5.52
2022-10-03T15:31:00.947Z,4.62
2022-10-03T15:36:07.065Z,3.26
2022-10-03T15:41:13.646Z,4.40
2022-10-03T15:46:20.145Z,4.52
2022-10-03T15:51:26.688Z,3.80
2022-10-03T15:56:32.842Z,3.07
2022-10-03T16:01:39.527Z,4.12
2022-10-03T16:06:44.796Z,3.87
2022-10-03T16:11:51.048Z,5.27
2022-10-03T16:16:57.229Z,5.30
2022-10-03T16:22:03.586Z,3.91
2022-10-03T16:27:09.758Z,5.01
2022-10-03T16:32:16.592Z,5.02
2022-10-03T16:37:22.733Z,5.01
2022-10-03T16:42:38.798Z,4.65
2022-10-03T16:47:33.920Z,5.76
2022-10-03T16:52:40.217Z,4.39
2022-10-03T16:57:46.637Z,5.96
2022-10-03T17:02:52.860Z,6.44
2022-10-03T17:07:58.978Z,5.14
2022-10-03T17:13:07.658Z,4.49
2022-10-03T17:18:13.795Z,5.77
2022-10-03T17:23:20.307Z,5.45
2022-10-03T17:28:26.509Z,4.97
2022-10-03T17:33:32.895Z,4.47
2022-10-03T17:38:49.358Z,9.03
2022-10-03T17:43:44.759Z,7.29
2022-10-03T17:48:50.900Z,5.23
2022-10-03T17:53:57.769Z,6.79
2022-10-03T17:59:03.008Z,7.06
2022-10-03T18:04:09.230Z,6.75
2022-10-03T18:09:15.319Z,5.61
2022-10-03T18:14:21.587Z,5.88
2022-10-03T18:19:27.769Z,4.79
2022-10-03T18:24:34.009Z,5.06
2022-10-03T18:29:40.644Z,7.08
2022-10-03T18:34:46.866Z,6.18
2022-10-03T18:39:54.593Z,7.29
2022-10-03T18:44:59.230Z,5.74
2022-10-03T18:50:06.579Z,6.76
2022-10-03T18:55:14.003Z,7.07
2022-10-03T19:00:16.810Z,4.89
2022-10-03T19:05:22.987Z,5.71
2022-10-03T19:10:29.070Z,8.05
2022-10-03T19:15:35.248Z,7.28
2022-10-03T19:20:41.796Z,6.04
2022-10-03T19:25:47.973Z,7.81
2022-10-03T19:30:54.110Z,9.58
2022-10-03T19:36:00.712Z,5.57
2022-10-03T19:41:06.911Z,6.59
2022-10-03T19:46:13.364Z,6.32
2022-10-03T19:51:23.848Z,5.94
2022-10-03T19:56:25.164Z,5.73
2022-10-03T20:01:31.288Z,6.02
2022-10-03T20:06:37.870Z,7.75
2022-10-03T20:11:44.333Z,7.57
2022-10-03T20:16:50.695Z,5.43
2022-10-03T20:21:57.045Z,6.22
2022-10-03T20:27:03.626Z,6.73
2022-10-03T20:32:09.761Z,7.16
2022-10-03T20:37:15.914Z,6.32
2022-10-03T20:42:22.002Z,7.34
2022-10-03T20:47:28.337Z,9.53
2022-10-03T20:52:34.731Z,9.45
2022-10-03T20:57:41.046Z,6.74
2022-10-03T21:02:47.186Z,9.30
2022-10-03T21:07:53.492Z,9.83
2022-10-03T21:12:59.550Z,8.05
2022-10-03T21:18:05.896Z,7.13
2022-10-03T21:23:11.970Z,10.63
2022-10-03T21:28:18.259Z,8.53
2022-10-03T21:33:24.308Z,8.60
2022-10-03T21:38:30.567Z,8.67
2022-10-03T21:43:36.699Z,8.25
2022-10-03T21:48:42.827Z,7.36
2022-10-03T21:53:49.696Z,7.10
2022-10-03T21:58:56.367Z,5.61
2022-10-03T22:04:02.528Z,8.48
2022-10-03T22:09:09.556Z,5.47
2022-10-03T22:14:15.626Z,7.38
2022-10-03T22:19:22.060Z,5.80
2022-10-03T22:24:28.174Z,7.83
2022-10-03T22:29:34.490Z,7.30
2022-10-03T22:34:40.595Z,7.62
2022-10-03T22:39:46.828Z,7.93
2022-10-03T22:44:52.932Z,11.67
2022-10-03T22:49:59.244Z,10.07
2022-10-03T22:55:05.621Z,8.96
2022-10-03T23:00:12.233Z,8.28
2022-10-03T23:05:18.641Z,7.73
2022-10-03T23:10:25.307Z,7.40
2022-10-03T23:15:31.499Z,8.02
2022-10-03T23:20:37.733Z,13.98
2022-10-03T23:25:51.677Z,8.03
2022-10-03T23:30:47.935Z,7.89
2022-10-03T23:35:54.048Z,6.17
2022-10-03T23:41:00.291Z,8.83
2022-10-03T23:46:06.553Z,8.01
2022-10-03T23:51:12.769Z,8.23
2022-10-03T23:56:18.886Z,10.71
